This is the latest recevied weather packets stored in our database for station/object SQ7IQO. If no packets are shown the sender has not sent any weather packets the latest 10 day(s).
| Time | Temp. | Humidity | Pressure | Rain* | Wind** | Luminosity | Snow |
|---|---|---|---|---|---|---|---|
| 1788076723 | 23.89° C | 58% | 1017.1 hPa | 0 mm | 0 m/s | - | - |
| 1788076663 | 23.89° C | 58% | 1017.1 hPa | 0 mm | 0 m/s | - | - |
| 1788076603 | 23.89° C | 56% | 1017.1 hPa | 0 mm | 0 m/s | - | - |
| 1788076543 | 24.44° C | 56% | 1017.1 hPa | 0 mm | 0 m/s | - | - |
| 1788076483 | 23.89° C | 57% | 1017.1 hPa | 0 mm | 0 m/s | - | - |
| 1788076423 | 23.89° C | 58% | 1017 hPa | 0 mm | 0 m/s | - | - |
| 1788076363 | 23.33° C | 59% | 1017.1 hPa | 0 mm | 0 m/s | - | - |
| 1788076303 | 22.78° C | 61% | 1017.1 hPa | 0 mm | 0 m/s | - | - |
| 1788076243 | 22.78° C | 61% | 1017.1 hPa | 0 mm | 0 m/s | - | - |
| 1788076183 | 22.22° C | 61% | 1016.6 hPa | 0 mm | 0 m/s | - | - |
| 1788076123 | 22.22° C | 61% | 1017.1 hPa | 0 mm | 0 m/s | - | - |
| 1788076063 | 21.67° C | 63% | 1017.1 hPa | 0 mm | 0 m/s | - | - |
| 1788076003 | 21.67° C | 62% | 1017.1 hPa | 0 mm | 0 m/s | - | - |
| 1788075943 | 21.67° C | 61% | 1017.1 hPa | 0 mm | 0 m/s | - | - |
| 1788075883 | 22.22° C | 61% | 1017.1 hPa | 0 mm | 0.45 m/s, ° | - | - |
| 1788075823 | 22.22° C | 61% | 1017.1 hPa | 0 mm | 0 m/s | - | - |
| 1788075763 | 22.78° C | 62% | 1017.1 hPa | 0 mm | 0 m/s | - | - |
| 1788075703 | 22.78° C | 61% | 1017.1 hPa | 0 mm | 0 m/s | - | - |
| 1788075643 | 22.78° C | 61% | 1017.1 hPa | 0 mm | 0 m/s | - | - |
| 1788075583 | 22.22° C | 63% | 1017.2 hPa | 0 mm | 0 m/s | - | - |
| 1788075523 | 22.22° C | 64% | 1017.1 hPa | 0 mm | 0 m/s | - | - |
| 1788075463 | 22.22° C | 64% | 1046.7 hPa | 0 mm | 0 m/s | - | - |
| 1788075403 | 22.22° C | 63% | 1017.1 hPa | 0 mm | 0 m/s | - | - |
| 1788075343 | 22.22° C | 63% | 1017.1 hPa | 0 mm | 0 m/s | - | - |
| 1788075283 | 22.78° C | 60% | 1017.2 hPa | 0 mm | 0 m/s | - | - |
* Rain latest hour (hover to see other rain measurements)
** Current wind speed in m/s (hover to see current wind gust speed)